Time;durP1;ratioP1;P1;durP2;ratioP2;P2;SDS_P1;SDS_P2;PMS_P1;PMS_P2;Temp;Humidity;BMP_temperature;BMP_pressure;BME280_temperature;BME280_humidity;BME280_pressure;Samples;Min_cycle;Max_cycle;Signal;HPM_P1;HPM_P2
2023/07/06 00:01:09;;;;;;;10.52;5.78;;;;;;;13.88;100.00;101492.66;5001638;28;20450;-54
2023/07/06 00:03:36;;;;;;;9.18;6.03;;;;;;;13.81;100.00;101488.78;4999491;28;20117;-51
2023/07/06 00:06:06;;;;;;;10.13;6.43;;;;;;;13.79;100.00;101489.88;4998477;28;20022;-54
2023/07/06 00:08:32;;;;;;;10.25;5.65;;;;;;;13.81;100.00;101488.78;4994343;28;20026;-51
2023/07/06 00:10:57;;;;;;;7.63;5.53;;;;;;;13.76;100.00;101484.81;4996828;28;20038;-54
2023/07/06 00:13:23;;;;;;;18.05;6.03;;;;;;;13.72;100.00;101489.50;5000379;28;20034;-54
2023/07/06 00:15:50;;;;;;;8.77;5.10;;;;;;;13.72;100.00;101492.19;4999687;28;20092;-51
2023/07/06 00:18:17;;;;;;;8.35;5.43;;;;;;;13.70;100.00;101488.81;4994306;28;20375;-52
2023/07/06 00:20:43;;;;;;;7.22;5.43;;;;;;;13.70;100.00;101494.13;5001076;28;20387;-52
2023/07/06 00:23:10;;;;;;;9.98;5.35;;;;;;;13.68;100.00;101493.41;5000977;28;20034;-53
2023/07/06 00:25:36;;;;;;;9.50;4.65;;;;;;;13.65;100.00;101486.50;4998306;28;20037;-53
2023/07/06 00:28:03;;;;;;;9.30;5.32;;;;;;;13.59;100.00;101486.13;5000223;28;20045;-52
2023/07/06 00:30:55;;;;;;;9.95;5.20;;;;;;;13.57;100.00;101486.25;4999843;28;20092;-52
2023/07/06 00:33:22;;;;;;;7.82;5.15;;;;;;;13.54;99.67;101488.31;4997623;28;20057;-51
2023/07/06 00:35:48;;;;;;;8.13;4.78;;;;;;;13.56;100.00;101489.91;5000650;28;20030;-53
2023/07/06 00:38:23;;;;;;;11.98;5.47;;;;;;;13.55;100.00;101487.34;4998231;28;20041;-51
2023/07/06 00:40:57;;;;;;;13.20;5.22;;;;;;;13.46;100.00;101483.59;4998571;28;20100;-52
2023/07/06 00:43:27;;;;;;;11.18;5.30;;;;;;;13.43;100.00;101491.84;5004209;28;20037;-52
2023/07/06 00:46:10;;;;;;;12.68;4.97;;;;;;;13.43;100.00;101491.84;5003592;28;20510;-51
2023/07/06 00:48:39;;;;;;;6.53;4.68;;;;;;;13.36;100.00;101494.13;4996674;28;20038;-53
2023/07/06 00:51:09;;;;;;;6.65;4.85;;;;;;;13.37;100.00;101486.97;5001763;28;20030;-52
2023/07/06 00:53:41;;;;;;;8.95;4.97;;;;;;;13.33;100.00;101497.88;5000214;28;20037;-55
2023/07/06 00:56:11;;;;;;;9.50;4.97;;;;;;;13.35;100.00;101488.91;4998741;28;20026;-54
2023/07/06 00:58:43;;;;;;;;;;;;;;;13.46;98.26;101486.25;4998364;28;20018;-54
2023/07/06 01:01:11;;;;;;;6.80;4.53;;;;;;;13.31;100.00;101491.78;5002887;28;20390;-54
2023/07/06 01:03:44;;;;;;;7.30;4.50;;;;;;;13.25;100.00;101486.91;5006896;28;20545;-54
2023/07/06 01:06:15;;;;;;;8.02;4.85;;;;;;;13.20;99.35;101493.59;5000509;28;20038;-54
2023/07/06 01:08:41;;;;;;;7.03;4.20;;;;;;;13.20;99.60;101494.44;4997782;28;20037;-51
2023/07/06 01:11:09;;;;;;;8.80;4.40;;;;;;;13.15;100.00;101491.28;5004192;28;20022;-54
2023/07/06 01:13:35;;;;;;;6.93;3.92;;;;;;;13.10;99.96;101490.78;5003256;28;20034;-55
2023/07/06 01:16:18;;;;;;;9.10;4.20;;;;;;;13.07;100.00;101489.22;5001254;28;20034;-52
2023/07/06 01:19:11;;;;;;;8.25;4.43;;;;;;;13.07;100.00;101486.56;5001982;28;20499;-52
2023/07/06 01:21:50;;;;;;;10.40;4.43;;;;;;;13.02;100.00;101487.84;5000508;28;20124;-52
2023/07/06 01:24:45;;;;;;;6.23;4.07;;;;;;;13.02;100.00;101488.69;4998494;28;20037;-51
2023/07/06 01:27:14;;;;;;;7.88;4.03;;;;;;;12.95;100.00;101484.81;5001387;28;20386;-53
2023/07/06 01:29:52;;;;;;;8.98;4.35;;;;;;;12.99;100.00;101486.28;5002571;28;20072;-52
2023/07/06 01:32:26;;;;;;;7.90;4.13;;;;;;;12.89;100.00;101479.94;4994359;28;20058;-52
2023/07/06 01:35:01;;;;;;;10.57;4.50;;;;;;;12.94;100.00;101489.31;5000764;28;20050;-54
2023/07/06 01:37:34;;;;;;;8.85;3.97;;;;;;;12.91;100.00;101491.34;4999787;28;20384;-54
2023/07/06 01:40:01;;;;;;;8.00;3.92;;;;;;;12.90;99.84;101487.81;5000891;28;20026;-54
2023/07/06 01:42:29;;;;;;;6.15;3.97;;;;;;;12.88;99.88;101497.75;4996702;28;20030;-52
2023/07/06 01:45:00;;;;;;;6.65;4.05;;;;;;;12.84;100.00;101484.78;5000534;28;20037;-52
2023/07/06 01:47:28;;;;;;;9.02;3.65;;;;;;;12.83;100.00;101485.75;4997912;28;20116;-54
2023/07/06 01:49:55;;;;;;;10.48;3.63;;;;;;;12.84;100.00;101488.31;5006543;28;20050;-52
2023/07/06 01:52:49;;;;;;;6.80;3.75;;;;;;;12.84;99.92;101482.09;5002429;28;20432;-52
2023/07/06 01:55:35;;;;;;;9.55;3.83;;;;;;;12.77;99.90;101485.25;4996943;28;20022;-52
2023/07/06 01:58:11;;;;;;;7.43;3.90;;;;;;;12.75;100.00;101489.00;4998515;28;20038;-52
2023/07/06 02:00:40;;;;;;;8.13;3.75;;;;;;;12.72;100.00;101491.88;5003826;28;20029;-51
2023/07/06 02:03:07;;;;;;;5.50;3.42;;;;;;;12.69;100.00;101498.31;4998933;28;20491;-52
2023/07/06 02:05:36;;;;;;;9.77;4.07;;;;;;;12.65;100.00;101502.16;4998577;28;20070;-51
2023/07/06 02:08:05;;;;;;;7.90;3.70;;;;;;;12.65;99.88;101499.50;4999354;28;20030;-51
2023/07/06 02:10:30;;;;;;;8.27;3.85;;;;;;;12.65;99.59;101501.31;4997900;28;20053;-52
2023/07/06 02:12:55;;;;;;;10.70;3.75;;;;;;;12.58;100.00;101501.75;4997996;28;20464;-52
2023/07/06 02:15:21;;;;;;;7.72;3.70;;;;;;;12.56;100.00;101497.53;5002148;28;20061;-51
2023/07/06 02:17:47;;;;;;;10.98;4.15;;;;;;;12.54;100.00;101499.44;4990777;28;20030;-54
2023/07/06 02:20:15;;;;;;;8.98;3.85;;;;;;;12.54;100.00;101494.09;5004200;28;20437;-51
2023/07/06 02:22:41;;;;;;;7.88;3.88;;;;;;;12.48;100.00;101491.91;4999905;28;20068;-52
2023/07/06 02:25:07;;;;;;;6.32;3.80;;;;;;;12.50;100.00;101495.31;5003712;28;20033;-52
2023/07/06 02:27:32;;;;;;;10.90;3.60;;;;;;;12.42;99.83;101490.53;5002748;28;20541;-54
2023/07/06 02:30:01;;;;;;;10.40;3.60;;;;;;;12.40;100.00;101493.31;5001195;28;20479;-51
2023/07/06 02:32:27;;;;;;;11.63;3.85;;;;;;;12.39;100.00;101485.47;5003392;28;20475;-52
2023/07/06 02:34:53;;;;;;;10.25;3.60;;;;;;;12.36;100.00;101483.03;5001492;28;20502;-54
2023/07/06 02:37:19;;;;;;;9.00;3.72;;;;;;;12.35;100.00;101489.31;5000219;28;20400;-51
2023/07/06 02:39:44;;;;;;;8.45;3.75;;;;;;;12.33;100.00;101484.09;5001489;28;20026;-51
2023/07/06 02:42:14;;;;;;;8.07;3.90;;;;;;;12.36;100.00;101483.03;5000020;28;20040;-52
2023/07/06 02:44:40;;;;;;;8.98;3.95;;;;;;;12.35;100.00;101486.63;5001279;28;20030;-51
2023/07/06 02:47:06;;;;;;;8.90;4.20;;;;;;;12.32;100.00;101489.53;5004001;28;20034;-52
2023/07/06 02:49:32;;;;;;;10.48;4.10;;;;;;;12.35;100.00;101486.63;5002128;28;20045;-51
2023/07/06 02:52:00;;;;;;;14.05;4.70;;;;;;;12.29;100.00;101484.41;5002198;28;20041;-52
2023/07/06 02:54:26;;;;;;;8.05;3.45;;;;;;;12.28;100.00;101491.56;4999422;28;20036;-51
2023/07/06 02:56:51;;;;;;;10.10;3.97;;;;;;;12.26;100.00;101490.84;4997834;28;20022;-52
2023/07/06 02:59:17;;;;;;;10.30;3.75;;;;;;;12.28;100.00;101496.06;5000343;28;20022;-52
2023/07/06 03:01:42;;;;;;;8.63;3.72;;;;;;;12.29;100.00;101495.06;4996805;28;20533;-51
2023/07/06 03:04:10;;;;;;;9.20;3.90;;;;;;;12.27;100.00;101489.03;5016649;28;20491;-51
2023/07/06 03:06:39;;;;;;;7.95;3.95;;;;;;;12.27;100.00;101494.34;5000856;28;20034;-52
2023/07/06 03:09:07;;;;;;;12.60;3.93;;;;;;;12.24;100.00;101497.22;5003016;28;20045;-51
2023/07/06 03:11:33;;;;;;;11.38;4.05;;;;;;;12.25;100.00;101497.13;4998868;28;20800;-52
2023/07/06 03:13:59;;;;;;;7.22;3.80;;;;;;;12.26;100.00;101490.84;5004760;28;20102;-51
2023/07/06 03:16:25;;;;;;;11.82;4.10;;;;;;;12.25;100.00;101499.78;4997943;28;20019;-51
2023/07/06 03:18:50;;;;;;;8.68;4.10;;;;;;;12.26;100.00;101504.16;5001980;28;20037;-51
2023/07/06 03:21:16;;;;;;;8.63;4.13;;;;;;;12.25;100.00;101507.78;4995409;28;20044;-51
2023/07/06 03:23:41;;;;;;;10.50;3.75;;;;;;;12.25;100.00;101504.28;5003652;28;20034;-52
2023/07/06 03:26:08;;;;;;;8.07;3.80;;;;;;;12.26;100.00;101512.16;4998181;28;20487;-51
2023/07/06 03:28:35;;;;;;;7.72;4.05;;;;;;;12.26;100.00;101503.28;5001393;28;20034;-51
2023/07/06 03:31:01;;;;;;;8.95;4.18;;;;;;;12.26;100.00;101512.16;5000599;28;20037;-51
2023/07/06 03:33:26;;;;;;;15.98;4.38;;;;;;;12.29;100.00;101516.38;4997237;28;20031;-52
2023/07/06 03:35:53;;;;;;;8.32;3.85;;;;;;;12.24;100.00;101519.41;5001339;28;20092;-51
2023/07/06 03:38:20;;;;;;;8.57;4.07;;;;;;;12.25;100.00;101518.44;5006823;28;20080;-51
2023/07/06 03:40:49;;;;;;;12.30;4.38;;;;;;;12.26;100.00;101521.94;4998499;28;20081;-51
2023/07/06 03:43:16;;;;;;;;;;;;;;;12.36;100.00;101525.66;5002280;28;20032;-52
2023/07/06 03:45:42;;;;;;;11.68;4.05;;;;;;;12.27;100.00;101529.81;4997904;28;19913;-51
2023/07/06 03:48:07;;;;;;;11.07;4.70;;;;;;;12.27;100.00;101521.81;5000903;28;20109;-51
2023/07/06 03:50:34;;;;;;;13.43;4.85;;;;;;;12.26;100.00;101525.47;4999741;28;20120;-51
2023/07/06 03:52:59;;;;;;;11.05;4.75;;;;;;;12.27;100.00;101532.47;5001527;28;20050;-52
2023/07/06 03:55:26;;;;;;;12.50;4.38;;;;;;;12.25;100.00;101531.75;4995792;28;20521;-51
2023/07/06 03:57:52;;;;;;;9.52;4.45;;;;;;;12.22;100.00;101531.97;4995832;28;20109;-51
2023/07/06 04:00:22;;;;;;;11.02;4.72;;;;;;;12.26;100.00;101537.91;4998845;28;20105;-55
2023/07/06 04:02:54;;;;;;;8.48;4.03;;;;;;;12.24;100.00;101530.06;4997346;28;20388;-52
2023/07/06 04:05:22;;;;;;;14.35;4.80;;;;;;;12.21;100.00;101536.44;4998952;28;20081;-53
2023/07/06 04:07:52;;;;;;;12.05;4.78;;;;;;;12.25;100.00;101541.56;5004323;28;20360;-55
2023/07/06 04:10:21;;;;;;;11.75;4.57;;;;;;;12.27;100.00;101543.13;4998183;28;20396;-53
2023/07/06 04:12:48;;;;;;;11.88;4.88;;;;;;;12.31;100.00;101541.13;5000987;28;20468;-52
2023/07/06 04:15:15;;;;;;;10.70;5.00;;;;;;;12.31;100.00;101543.78;5010160;28;20574;-53
2023/07/06 04:17:41;;;;;;;12.68;4.50;;;;;;;12.30;100.00;101544.72;5003908;28;20030;-53
2023/07/06 04:20:18;;;;;;;10.80;4.90;;;;;;;12.29;100.00;101543.91;4996957;28;20026;-52
2023/07/06 04:22:47;;;;;;;11.63;5.03;;;;;;;12.32;100.00;101548.13;5005213;28;20137;-52
2023/07/06 04:25:15;;;;;;;10.80;4.97;;;;;;;12.30;100.00;101547.41;5001851;28;20045;-53
2023/07/06 04:27:42;;;;;;;9.68;5.03;;;;;;;12.31;100.00;101541.13;4999248;28;20364;-52
2023/07/06 04:30:10;;;;;;;12.65;5.43;;;;;;;12.34;100.00;101549.72;4996606;28;20157;-51
2023/07/06 04:32:36;;;;;;;12.55;4.68;;;;;;;12.35;100.00;101547.91;4998926;28;20037;-52
2023/07/06 04:35:02;;;;;;;11.02;5.05;;;;;;;12.37;100.00;101552.19;5003345;28;20041;-52
2023/07/06 04:37:28;;;;;;;9.05;4.78;;;;;;;12.35;100.00;101556.75;4999341;28;20034;-52
2023/07/06 04:39:53;;;;;;;17.10;5.32;;;;;;;12.38;100.00;101561.84;5001105;28;20397;-51
2023/07/06 04:42:19;;;;;;;8.27;4.85;;;;;;;12.39;100.00;101558.25;4993782;28;20476;-52
2023/07/06 04:44:45;;;;;;;15.00;5.60;;;;;;;12.43;100.00;101563.34;5000296;28;20022;-54
2023/07/06 04:47:11;;;;;;;12.73;5.47;;;;;;;12.48;100.00;101563.84;4996345;28;20023;-53
2023/07/06 04:49:37;;;;;;;18.40;5.68;;;;;;;12.50;100.00;101565.44;4999773;28;20073;-52
2023/07/06 04:52:03;;;;;;;12.55;5.40;;;;;;;12.50;100.00;101565.44;4996896;28;20041;-53
2023/07/06 04:54:30;;;;;;;16.02;5.45;;;;;;;12.54;100.00;101574.91;5005418;28;20055;-52
2023/07/06 04:56:55;;;;;;;14.07;6.05;;;;;;;12.58;100.00;101570.22;5001701;28;20090;-52
2023/07/06 04:59:21;;;;;;;15.02;5.50;;;;;;;12.64;100.00;101574.22;4999916;28;20134;-52
2023/07/06 05:01:47;;;;;;;14.63;5.50;;;;;;;12.67;100.00;101566.84;4999849;28;20034;-53
2023/07/06 05:04:12;;;;;;;14.00;5.90;;;;;;;12.71;100.00;101578.16;5001795;28;20033;-52
2023/07/06 05:06:37;;;;;;;14.55;6.15;;;;;;;12.72;100.00;101572.72;4995350;28;20419;-51
2023/07/06 05:09:03;;;;;;;16.02;6.82;;;;;;;12.76;100.00;101578.66;5000677;28;20025;-51
2023/07/06 05:11:30;;;;;;;13.32;6.30;;;;;;;12.76;100.00;101578.66;4996431;28;20018;-52
2023/07/06 05:13:56;;;;;;;14.13;6.90;;;;;;;12.82;100.00;101572.84;4998439;28;20041;-52
2023/07/06 05:16:22;;;;;;;17.45;7.13;;;;;;;12.86;100.00;101574.34;4996587;28;20092;-52
2023/07/06 05:18:48;;;;;;;14.88;6.57;;;;;;;12.89;100.00;101579.47;5000774;28;20118;-51
2023/07/06 05:21:14;;;;;;;16.50;6.72;;;;;;;12.94;100.00;101581.78;5001617;28;20069;-53
2023/07/06 05:23:40;;;;;;;15.20;7.32;;;;;;;12.98;100.00;101574.41;5001278;28;20458;-52
2023/07/06 05:26:06;;;;;;;17.33;7.22;;;;;;;13.00;100.00;101580.47;5000183;28;20065;-51
2023/07/06 05:28:32;;;;;;;18.70;8.25;;;;;;;13.07;100.00;101579.91;4996621;28;20092;-52
2023/07/06 05:30:59;;;;;;;18.05;7.50;;;;;;;13.13;100.00;101579.41;4997815;28;20450;-53
2023/07/06 05:33:25;;;;;;;14.32;7.45;;;;;;;13.19;100.00;101577.25;4999883;28;20076;-52
2023/07/06 05:35:50;;;;;;;18.45;7.70;;;;;;;13.25;100.00;101588.28;4995312;28;20033;-54
2023/07/06 05:38:16;;;;;;;18.55;8.27;;;;;;;13.28;100.00;101585.41;4999657;28;20480;-53
2023/07/06 05:40:41;;;;;;;18.25;7.95;;;;;;;13.38;100.00;101585.56;4995542;28;20119;-52
2023/07/06 05:43:08;;;;;;;18.10;8.40;;;;;;;13.43;100.00;101579.91;5001230;28;20092;-54
2023/07/06 05:45:33;;;;;;;16.92;8.23;;;;;;;13.51;100.00;101586.34;5001588;28;20030;-52
2023/07/06 05:47:58;;;;;;;15.23;7.93;;;;;;;13.61;100.00;101590.97;5001450;28;20541;-53
2023/07/06 05:50:24;;;;;;;23.77;8.93;;;;;;;13.66;100.00;101596.81;4998811;28;20037;-54
2023/07/06 05:52:49;;;;;;;18.92;7.97;;;;;;;13.74;100.00;101591.72;5006452;28;20476;-52
2023/07/06 05:55:15;;;;;;;19.67;8.30;;;;;;;13.78;100.00;101586.97;5002917;28;20109;-51
2023/07/06 05:57:41;;;;;;;20.02;8.63;;;;;;;13.87;100.00;101591.59;5001858;28;20029;-51
2023/07/06 06:00:09;;;;;;;22.55;7.90;;;;;;;13.99;100.00;101597.78;4996951;28;20116;-52
2023/07/06 06:02:35;;;;;;;19.03;8.10;;;;;;;14.17;100.00;101601.69;4995886;28;20403;-52
2023/07/06 06:05:01;;;;;;;18.05;7.85;;;;;;;14.30;100.00;101596.19;4998891;28;20297;-52
2023/07/06 06:07:26;;;;;;;22.15;8.82;;;;;;;14.49;100.00;101597.38;4997574;28;20526;-51
2023/07/06 06:09:52;;;;;;;35.45;9.10;;;;;;;14.73;100.00;101595.41;5002394;28;20096;-52
2023/07/06 06:12:18;;;;;;;18.00;7.65;;;;;;;14.88;100.00;101601.31;5006603;28;20121;-54
2023/07/06 06:14:47;;;;;;;21.95;7.90;;;;;;;15.07;100.00;101600.63;5001716;28;20026;-53
2023/07/06 06:17:14;;;;;;;16.05;7.20;;;;;;;15.15;100.00;101600.84;4995379;28;20391;-51
2023/07/06 06:19:39;;;;;;;17.70;7.68;;;;;;;15.30;100.00;101605.88;4993474;28;20022;-51
2023/07/06 06:22:06;;;;;;;18.70;7.60;;;;;;;15.37;99.72;101612.41;4989292;28;20626;-52
2023/07/06 06:24:32;;;;;;;18.83;7.57;;;;;;;15.40;97.54;101617.47;4998752;28;20030;-51
2023/07/06 06:27:00;;;;;;;20.60;7.57;;;;;;;15.47;99.15;101616.00;4994454;28;20037;-52
2023/07/06 06:29:27;;;;;;;22.65;8.38;;;;;;;15.58;99.62;101620.44;4994685;28;20022;-51
2023/07/06 06:31:53;;;;;;;16.63;7.43;;;;;;;15.62;97.81;101621.88;4996594;28;20049;-50
2023/07/06 06:34:18;;;;;;;18.95;8.60;;;;;;;15.63;96.39;101628.06;4999429;28;20045;-51
2023/07/06 06:36:43;;;;;;;19.00;8.32;;;;;;;15.60;95.48;101621.13;4995608;28;20433;-51
2023/07/06 06:39:09;;;;;;;19.73;8.77;;;;;;;15.65;95.43;101624.28;5005294;28;20488;-51
2023/07/06 06:41:38;;;;;;;18.05;8.48;;;;;;;15.73;95.89;101631.66;5000053;28;20049;-52
2023/07/06 06:44:04;;;;;;;21.30;9.00;;;;;;;15.79;97.06;101630.31;5000406;28;20034;-51
2023/07/06 06:46:30;;;;;;;21.08;9.40;;;;;;;15.87;95.71;101627.81;5000643;28;20479;-52
2023/07/06 06:48:55;;;;;;;24.65;9.82;;;;;;;15.93;94.69;101635.31;4998788;28;20030;-53
2023/07/06 06:51:21;;;;;;;20.45;9.23;;;;;;;16.00;94.69;101641.00;4996300;28;20367;-52
2023/07/06 06:53:46;;;;;;;23.25;8.82;;;;;;;16.11;95.36;101643.59;4995090;28;20050;-51
2023/07/06 06:56:12;;;;;;;24.30;10.07;;;;;;;16.19;96.36;101646.44;4994272;28;20030;-53
2023/07/06 06:58:38;;;;;;;25.08;9.32;;;;;;;16.20;94.50;101639.25;5002508;28;20486;-51
2023/07/06 07:01:07;;;;;;;22.63;10.18;;;;;;;16.28;94.26;101642.09;4998320;28;20082;-51
2023/07/06 07:03:34;;;;;;;20.73;9.15;;;;;;;16.37;93.73;101641.31;5000003;28;20082;-51
2023/07/06 07:06:17;;;;;;;22.48;10.05;;;;;;;16.53;94.90;101656.03;4998178;28;20023;-51
2023/07/06 07:08:51;;;;;;;22.60;10.05;;;;;;;16.55;93.93;101646.00;4995113;28;20076;-54
2023/07/06 07:11:19;;;;;;;19.45;10.02;;;;;;;16.60;92.93;101649.13;4999892;28;20044;-55
2023/07/06 07:13:47;;;;;;;25.95;10.10;;;;;;;16.72;93.25;101647.16;4993344;28;20037;-52
2023/07/06 07:16:12;;;;;;;19.70;9.60;;;;;;;16.78;91.12;101649.31;5000761;28;20030;-51
2023/07/06 07:18:39;;;;;;;20.73;9.90;;;;;;;16.94;92.45;101657.69;5001038;28;20137;-54
2023/07/06 07:21:06;;;;;;;22.98;9.55;;;;;;;17.01;89.60;101660.66;4995609;28;20514;-52
2023/07/06 07:23:42;;;;;;;22.33;9.65;;;;;;;17.12;91.52;101657.84;4996628;28;20409;-53
2023/07/06 07:26:13;;;;;;;17.83;9.35;;;;;;;17.22;90.18;101662.38;4994447;28;20035;-53
2023/07/06 07:28:39;;;;;;;15.30;9.07;;;;;;;17.26;88.59;101674.53;4993405;28;20081;-54
2023/07/06 07:31:11;;;;;;;20.30;10.13;;;;;;;17.27;89.65;101671.72;5000436;28;20029;-54
2023/07/06 07:33:42;;;;;;;21.85;9.57;;;;;;;17.37;89.83;101674.41;4997312;28;20400;-54
2023/07/06 07:36:12;;;;;;;23.35;9.52;;;;;;;17.46;88.16;101680.75;4997203;28;20127;-53
2023/07/06 07:38:38;;;;;;;17.95;10.52;;;;;;;17.71;87.95;101679.31;4999578;28;20034;-52
2023/07/06 07:41:06;;;;;;;17.85;9.73;;;;;;;18.09;86.09;101669.47;4997689;28;20109;-52
2023/07/06 07:43:34;;;;;;;19.85;10.18;;;;;;;18.28;85.43;101672.06;5000564;28;20033;-53
2023/07/06 07:46:03;;;;;;;17.77;9.30;;;;;;;18.40;83.65;101680.84;4991786;28;20061;-52
2023/07/06 07:48:32;;;;;;;;;;;;;;;18.55;86.02;101673.13;5001475;28;20426;-55
2023/07/06 07:50:58;;;;;;;19.00;8.85;;;;;;;18.51;83.60;101676.25;4993012;28;20000;-52
2023/07/06 07:53:25;;;;;;;18.88;9.60;;;;;;;18.54;81.90;101678.63;4998115;28;20595;-52
2023/07/06 07:55:53;;;;;;;17.05;8.90;;;;;;;18.64;83.41;101672.19;4997184;28;20039;-55
2023/07/06 07:58:19;;;;;;;21.08;9.73;;;;;;;18.93;82.47;101670.34;5015900;28;20033;-52
2023/07/06 08:00:51;;;;;;;20.48;10.57;;;;;;;19.31;81.31;101674.59;4996406;28;20143;-50
2023/07/06 08:03:17;;;;;;;15.30;7.97;;;;;;;19.75;78.92;101677.34;5001009;28;20448;-51
2023/07/06 08:05:42;;;;;;;17.13;8.70;;;;;;;19.81;76.80;101680.41;5001079;28;20057;-51
2023/07/06 08:08:10;;;;;;;18.33;8.15;;;;;;;19.95;77.44;101674.41;4998378;28;20029;-51
2023/07/06 08:10:38;;;;;;;18.65;8.73;;;;;;;20.32;74.91;101678.69;4993351;28;20022;-54
2023/07/06 08:13:06;;;;;;;15.20;8.13;;;;;;;20.58;73.16;101686.72;4996750;28;20019;-51
2023/07/06 08:15:31;;;;;;;16.80;8.10;;;;;;;20.65;72.71;101687.78;4994219;28;20034;-51
2023/07/06 08:18:00;;;;;;;20.30;7.53;;;;;;;20.67;72.37;101680.38;4998369;28;20026;-53
2023/07/06 08:20:27;;;;;;;15.63;7.35;;;;;;;20.75;71.34;101681.41;5001178;28;20439;-54
2023/07/06 08:22:53;;;;;;;16.75;7.40;;;;;;;20.97;72.06;101690.75;4971973;28;20468;-51
2023/07/06 08:25:19;;;;;;;15.80;7.68;;;;;;;21.36;70.91;101690.13;4995280;28;20037;-52
2023/07/06 08:27:46;;;;;;;15.77;7.40;;;;;;;21.50;69.88;101686.78;5001487;28;20033;-53
2023/07/06 08:30:12;;;;;;;12.80;7.18;;;;;;;21.46;68.60;101684.56;5002935;28;20033;-54
2023/07/06 08:32:37;;;;;;;18.00;6.72;;;;;;;21.44;66.74;101685.56;5001575;28;20034;-55
2023/07/06 08:35:04;;;;;;;15.90;7.32;;;;;;;21.70;68.46;101686.41;4999482;28;20074;-54
2023/07/06 08:37:29;;;;;;;15.57;7.72;;;;;;;21.84;67.32;101693.03;4999372;28;20476;-53
2023/07/06 08:39:54;;;;;;;13.30;6.60;;;;;;;22.24;67.27;101693.94;5001070;28;20033;-51
2023/07/06 08:42:21;;;;;;;15.05;7.30;;;;;;;22.27;64.94;101699.00;5002473;28;20037;-55
2023/07/06 08:44:51;;;;;;;15.45;6.97;;;;;;;22.28;64.53;101693.47;5002919;28;20022;-52
2023/07/06 08:47:17;;;;;;;18.17;6.60;;;;;;;22.40;64.78;101699.34;4999208;28;20041;-53
2023/07/06 08:49:43;;;;;;;10.90;6.10;;;;;;;22.44;64.46;101705.25;5001625;28;20022;-51
2023/07/06 08:52:12;;;;;;;15.10;5.95;;;;;;;22.49;62.59;101706.38;4999644;28;20065;-52
2023/07/06 08:54:39;;;;;;;;;;;;;;;22.81;67.92;101704.53;4998294;28;20057;-52
2023/07/06 08:57:15;;;;;;;13.13;5.45;;;;;;;22.69;62.82;101703.25;4998319;28;19913;-52
2023/07/06 08:59:43;;;;;;;12.73;5.32;;;;;;;23.06;62.03;101707.13;4993654;28;20026;-51
2023/07/06 09:02:22;;;;;;;10.75;4.63;;;;;;;23.08;62.71;101702.38;4993501;28;20040;-51
2023/07/06 09:04:50;;;;;;;13.90;5.88;;;;;;;23.07;60.00;101715.09;4993811;28;20026;-51
2023/07/06 09:07:18;;;;;;;11.93;5.30;;;;;;;23.07;60.25;101708.84;4994046;28;20041;-52
2023/07/06 09:09:47;;;;;;;10.75;4.60;;;;;;;22.92;59.81;101716.84;4994287;28;20510;-52
2023/07/06 09:12:29;;;;;;;12.85;5.47;;;;;;;22.95;60.86;101711.09;4995371;28;20491;-51
2023/07/06 09:14:58;;;;;;;14.43;4.65;;;;;;;22.88;61.21;101721.78;4992796;28;20030;-51
2023/07/06 09:17:23;;;;;;;13.55;4.57;;;;;;;22.85;59.89;101715.91;4998021;28;20033;-51
2023/07/06 09:19:51;;;;;;;11.73;3.97;;;;;;;23.04;60.36;101714.59;5000179;28;20416;-50
2023/07/06 09:22:18;;;;;;;14.07;4.18;;;;;;;23.25;59.70;101709.41;5002844;28;20399;-53
2023/07/06 09:24:45;;;;;;;14.23;3.88;;;;;;;23.41;58.74;101715.72;4998593;28;20383;-51
2023/07/06 09:27:17;;;;;;;13.55;4.32;;;;;;;23.40;58.94;101714.88;5000385;28;20033;-51
2023/07/06 09:29:44;;;;;;;10.07;3.50;;;;;;;23.62;58.45;101715.03;5006323;28;20030;-51
2023/07/06 09:32:19;;;;;;;7.95;3.60;;;;;;;23.74;58.87;101712.72;4994682;28;20058;-52
2023/07/06 09:34:49;;;;;;;12.15;4.07;;;;;;;23.59;58.15;101707.28;4998924;28;20517;-51
2023/07/06 09:37:15;;;;;;;10.63;3.55;;;;;;;23.75;58.95;101719.84;5000467;28;20038;-50
2023/07/06 09:39:41;;;;;;;12.07;3.65;;;;;;;23.93;53.82;101714.97;4995936;28;20226;-50
2023/07/06 09:42:14;;;;;;;7.47;3.15;;;;;;;24.26;56.24;101711.03;5001626;28;20079;-51
2023/07/06 09:44:41;;;;;;;8.73;3.40;;;;;;;24.25;52.88;101714.78;4999469;28;20105;-52
2023/07/06 09:47:13;;;;;;;7.15;2.95;;;;;;;24.41;53.98;101714.59;5003718;28;20022;-51
2023/07/06 09:49:48;;;;;;;12.05;3.17;;;;;;;24.35;53.71;101713.47;5002822;28;20034;-51
2023/07/06 09:52:15;;;;;;;6.45;2.85;;;;;;;24.34;52.37;101716.38;4996071;28;20030;-51
2023/07/06 09:55:02;;;;;;;8.53;2.80;;;;;;;24.50;54.82;101720.78;5002535;28;20764;-50
2023/07/06 09:57:33;;;;;;;13.18;3.00;;;;;;;24.32;53.25;101713.84;4997932;28;20034;-50
2023/07/06 10:00:00;;;;;;;7.38;2.60;;;;;;;24.36;52.81;101717.91;5002671;28;20046;-51
2023/07/06 10:02:28;;;;;;;7.80;2.50;;;;;;;24.26;51.80;101717.31;4998054;28;20026;-52
2023/07/06 10:05:37;;;;;;;8.60;2.70;;;;;;;24.55;54.64;101705.63;5002391;28;20038;-51
2023/07/06 10:08:12;;;;;;;6.85;2.83;;;;;;;24.35;51.06;101712.66;4992063;28;20030;-51
2023/07/06 10:11:16;;;;;;;10.30;2.72;;;;;;;24.71;51.85;101707.31;4994360;28;20080;-53
2023/07/06 10:14:00;;;;;;;7.30;2.70;;;;;;;24.91;49.24;101707.53;4999587;28;20101;-52
2023/07/06 10:16:44;;;;;;;10.25;2.60;;;;;;;25.03;48.32;101710.59;4997134;28;20117;-51
2023/07/06 10:19:20;;;;;;;7.95;2.67;;;;;;;24.85;49.41;101710.19;5005990;28;20033;-54
2023/07/06 10:22:03;;;;;;;6.03;2.45;;;;;;;24.77;49.93;101704.84;5004335;28;20029;-54
2023/07/06 10:24:41;;;;;;;5.35;2.50;;;;;;;24.63;49.67;101706.53;4998364;28;20030;-52
2023/07/06 10:27:16;;;;;;;5.97;2.25;;;;;;;24.62;51.18;101699.44;4979762;28;20112;-54
2023/07/06 10:29:47;;;;;;;5.63;2.20;;;;;;;24.98;49.11;101695.88;5001427;28;20034;-54
2023/07/06 10:32:27;;;;;;;7.70;2.80;;;;;;;25.10;47.84;101692.47;4997948;28;20038;-55
2023/07/06 10:35:04;;;;;;;7.68;2.47;;;;;;;25.08;48.69;101690.97;4993945;28;20049;-52
2023/07/06 10:37:31;;;;;;;9.10;2.88;;;;;;;24.92;48.47;101701.06;5003670;28;20124;-51
2023/07/06 10:40:32;;;;;;;10.90;2.83;;;;;;;25.21;47.17;101690.25;4995494;28;20087;-53
2023/07/06 10:43:17;;;;;;;6.63;2.22;;;;;;;25.25;49.25;101697.00;4997659;28;20046;-52
2023/07/06 10:45:42;;;;;;;6.40;2.42;;;;;;;25.39;48.59;101695.28;4998131;28;20058;-52
2023/07/06 10:48:30;;;;;;;7.00;2.45;;;;;;;25.60;48.82;101689.00;5003106;28;20542;-52
2023/07/06 10:51:14;;;;;;;9.10;2.40;;;;;;;25.97;48.18;101693.25;4999345;28;20061;-51
2023/07/06 10:53:42;;;;;;;5.63;2.08;;;;;;;26.06;47.13;101693.09;5002012;28;20042;-51
2023/07/06 10:56:20;;;;;;;5.30;2.17;;;;;;;25.95;43.69;101679.00;5003948;28;20025;-51
2023/07/06 10:58:54;;;;;;;8.45;2.60;;;;;;;25.55;42.74;101696.91;5000095;28;20065;-51
2023/07/06 11:01:22;;;;;;;5.32;2.22;;;;;;;25.40;46.17;101699.69;5000609;28;20475;-52
2023/07/06 11:03:48;;;;;;;5.53;2.10;;;;;;;25.14;44.73;101697.53;4997313;28;20574;-51
2023/07/06 11:06:16;;;;;;;5.32;2.38;;;;;;;25.20;43.44;101702.19;5001691;28;20105;-53
2023/07/06 11:09:03;;;;;;;6.22;1.70;;;;;;;25.29;45.45;101706.47;4999505;28;20104;-54
2023/07/06 11:11:29;;;;;;;4.78;1.75;;;;;;;25.00;44.05;101718.28;5013635;28;20509;-55
2023/07/06 11:13:55;;;;;;;6.20;2.20;;;;;;;24.85;44.49;101713.72;4999390;28;20042;-51
2023/07/06 11:16:26;;;;;;;5.43;2.30;;;;;;;24.59;44.50;101710.69;5000598;28;20114;-51
2023/07/06 11:18:55;;;;;;;5.47;2.15;;;;;;;24.83;45.16;101718.53;5015579;28;20038;-51
2023/07/06 11:21:30;;;;;;;7.00;2.28;;;;;;;24.77;46.70;101711.13;4992879;28;20653;-51
2023/07/06 11:24:02;;;;;;;4.88;2.05;;;;;;;24.75;49.13;101714.03;4993950;28;20136;-52
2023/07/06 11:26:39;;;;;;;6.10;2.10;;;;;;;24.67;46.90;101718.72;4996232;28;20031;-54